createdAt,value
2023-05-10T00:03:16.684Z,7.45
2023-05-10T00:06:58.522Z,7.32
2023-05-10T00:10:41.398Z,6.70
2023-05-10T00:14:23.154Z,7.55
2023-05-10T00:18:05.086Z,9.30
2023-05-10T00:21:47.013Z,9.48
2023-05-10T00:25:28.851Z,9.63
2023-05-10T00:29:10.781Z,9.90
2023-05-10T00:32:52.941Z,8.95
2023-05-10T00:36:34.880Z,9.38
2023-05-10T00:40:17.100Z,8.77
2023-05-10T00:43:59.678Z,7.32
2023-05-10T00:47:41.937Z,6.05
2023-05-10T00:51:23.956Z,5.20
2023-05-10T00:55:07.098Z,5.70
2023-05-10T00:58:49.698Z,4.20
2023-05-10T01:02:31.617Z,4.90
2023-05-10T01:06:13.841Z,4.82
2023-05-10T01:09:55.895Z,4.20
2023-05-10T01:13:40.565Z,4.65
2023-05-10T01:17:23.409Z,4.22
2023-05-10T01:21:33.096Z,4.47
2023-05-10T01:25:53.541Z,4.63
2023-05-10T01:30:23.912Z,4.10
2023-05-10T01:34:17.224Z,3.88
2023-05-10T01:38:15.237Z,4.22
2023-05-10T01:42:04.511Z,4.03
2023-05-10T01:46:01.143Z,3.85
2023-05-10T01:49:51.321Z,4.30
2023-05-10T01:53:36.023Z,4.50
2023-05-10T01:57:20.192Z,4.28
2023-05-10T02:01:05.498Z,3.70
2023-05-10T02:04:48.382Z,3.85
2023-05-10T02:08:31.284Z,4.55
2023-05-10T02:12:15.082Z,4.32
2023-05-10T02:15:58.683Z,4.53
2023-05-10T02:19:42.889Z,4.55
2023-05-10T02:23:26.086Z,5.03
2023-05-10T02:27:09.571Z,5.22
2023-05-10T02:30:52.487Z,4.28
2023-05-10T02:34:34.660Z,5.43
2023-05-10T02:38:18.149Z,5.20
2023-05-10T02:42:01.715Z,5.72
2023-05-10T02:45:45.323Z,6.38
2023-05-10T02:49:27.201Z,5.15
2023-05-10T02:53:15.912Z,6.70
2023-05-10T02:57:04.892Z,6.43
2023-05-10T03:00:47.473Z,5.68
2023-05-10T03:04:29.261Z,6.05
2023-05-10T03:08:11.183Z,6.68
2023-05-10T03:12:08.724Z,6.05
2023-05-10T03:15:53.463Z,5.80
2023-05-10T03:19:46.623Z,6.18
2023-05-10T03:23:37.143Z,5.25
2023-05-10T03:27:19.781Z,5.72
2023-05-10T03:31:02.371Z,6.18
2023-05-10T03:34:44.518Z,6.95
2023-05-10T03:38:27.344Z,6.30
2023-05-10T03:42:12.825Z,6.93
2023-05-10T03:45:54.826Z,8.30
2023-05-10T03:49:36.588Z,7.70
2023-05-10T03:53:18.318Z,8.38
2023-05-10T03:57:01.884Z,8.60
2023-05-10T04:00:46.148Z,7.95
2023-05-10T04:04:28.023Z,7.68
2023-05-10T04:08:09.912Z,7.15
2023-05-10T04:11:52.126Z,8.15
2023-05-10T04:15:33.864Z,6.93
2023-05-10T04:19:15.644Z,7.53
2023-05-10T04:22:57.470Z,7.13
2023-05-10T04:26:39.201Z,7.00
2023-05-10T04:30:21.058Z,7.78
2023-05-10T04:34:02.896Z,8.35
2023-05-10T04:37:44.689Z,9.27
2023-05-10T04:41:26.901Z,10.13
2023-05-10T04:45:10.431Z,8.85
2023-05-10T04:48:52.118Z,9.02
2023-05-10T04:52:33.968Z,10.43
2023-05-10T04:56:15.804Z,8.10
2023-05-10T04:59:57.589Z,8.43
2023-05-10T05:03:39.385Z,7.97
2023-05-10T05:07:21.161Z,7.78
2023-05-10T05:11:03.012Z,7.10
2023-05-10T05:14:44.746Z,7.18
2023-05-10T05:18:26.457Z,7.57
2023-05-10T05:22:09.255Z,7.35
2023-05-10T05:25:52.459Z,6.55
2023-05-10T05:29:34.509Z,6.75
2023-05-10T05:33:16.492Z,6.13
2023-05-10T05:36:58.215Z,6.03
2023-05-10T05:40:39.924Z,5.32
2023-05-10T05:44:21.637Z,5.35
2023-05-10T05:48:03.639Z,5.47
2023-05-10T05:51:46.192Z,5.47
2023-05-10T05:55:28.030Z,5.20
2023-05-10T05:59:09.766Z,5.53
2023-05-10T06:02:51.606Z,5.78
2023-05-10T06:06:33.419Z,4.97
2023-05-10T06:10:15.398Z,4.97
2023-05-10T06:13:57.273Z,4.60
2023-05-10T06:17:40.014Z,4.80
2023-05-10T06:21:22.029Z,4.47
2023-05-10T06:25:03.937Z,4.80
2023-05-10T06:28:45.690Z,4.07
2023-05-10T06:32:27.443Z,4.50
2023-05-10T06:36:09.257Z,4.05
2023-05-10T06:39:51.017Z,4.10
2023-05-10T06:43:32.733Z,4.28
2023-05-10T06:47:14.469Z,4.00
2023-05-10T06:50:56.185Z,4.22
2023-05-10T06:54:37.929Z,3.80
2023-05-10T06:58:19.694Z,4.78
2023-05-10T07:02:01.491Z,4.43
2023-05-10T07:05:43.460Z,4.60
2023-05-10T07:09:25.465Z,3.95
2023-05-10T07:13:07.615Z,4.22
2023-05-10T07:16:49.471Z,3.78
2023-05-10T07:20:31.199Z,4.05
2023-05-10T07:24:12.962Z,3.63
2023-05-10T07:27:54.692Z,3.75
2023-05-10T07:31:36.644Z,3.60
2023-05-10T07:35:18.594Z,3.47
2023-05-10T07:39:00.531Z,3.42
2023-05-10T07:42:42.267Z,3.45
2023-05-10T07:46:24.079Z,3.55
2023-05-10T07:50:06.676Z,2.92
2023-05-10T07:53:48.430Z,3.60
2023-05-10T07:57:30.312Z,3.15
2023-05-10T08:01:12.058Z,3.55
2023-05-10T08:04:53.921Z,3.17
2023-05-10T08:08:35.657Z,3.55
2023-05-10T08:12:17.478Z,3.38
2023-05-10T08:15:59.419Z,3.20
2023-05-10T08:19:41.180Z,3.88
2023-05-10T08:23:23.127Z,3.90
2023-05-10T08:27:08.432Z,3.17
2023-05-10T08:30:51.587Z,3.85
2023-05-10T08:34:33.779Z,3.95
2023-05-10T08:38:15.758Z,4.00
2023-05-10T08:42:02.472Z,3.75
2023-05-10T08:45:48.564Z,4.15
2023-05-10T08:49:32.711Z,3.70
2023-05-10T08:53:16.045Z,4.57
2023-05-10T08:56:57.919Z,3.83
2023-05-10T09:00:39.809Z,4.60
2023-05-10T09:04:22.522Z,4.63
2023-05-10T09:08:04.531Z,4.72
2023-05-10T09:11:47.349Z,5.18
2023-05-10T09:15:29.104Z,3.97
2023-05-10T09:19:11.418Z,4.22
2023-05-10T09:22:53.410Z,3.50
2023-05-10T09:26:36.694Z,3.78
2023-05-10T09:30:25.327Z,3.72
2023-05-10T09:34:07.319Z,3.75
2023-05-10T09:37:51.544Z,4.28
2023-05-10T09:41:34.445Z,3.75
2023-05-10T09:45:16.499Z,4.13
2023-05-10T09:49:00.194Z,4.00
2023-05-10T09:53:02.365Z,3.70
2023-05-10T09:56:44.269Z,3.90
2023-05-10T10:00:27.187Z,3.55
2023-05-10T10:04:10.668Z,3.25
2023-05-10T10:07:53.030Z,3.70
2023-05-10T10:11:39.527Z,2.83
2023-05-10T10:15:25.159Z,2.97
2023-05-10T10:19:07.781Z,2.85
2023-05-10T10:22:50.238Z,2.78
2023-05-10T10:26:34.326Z,2.95
2023-05-10T10:30:36.032Z,2.83
2023-05-10T10:34:29.059Z,3.35
2023-05-10T10:38:10.892Z,2.90
2023-05-10T10:41:57.677Z,3.20
2023-05-10T10:45:42.195Z,2.83
2023-05-10T10:49:24.142Z,3.13
2023-05-10T10:53:12.131Z,2.80
2023-05-10T10:57:17.400Z,2.58
2023-05-10T11:01:19.363Z,2.95
2023-05-10T11:05:01.892Z,3.22
2023-05-10T11:08:44.933Z,3.30
2023-05-10T11:12:26.667Z,3.22
2023-05-10T11:16:27.735Z,3.17
2023-05-10T11:20:11.011Z,2.70
2023-05-10T11:23:58.355Z,2.72
2023-05-10T11:27:41.058Z,2.70
2023-05-10T11:31:24.162Z,3.22
2023-05-10T11:35:10.049Z,3.05
2023-05-10T11:38:51.846Z,2.58
2023-05-10T11:42:34.580Z,3.17
2023-05-10T11:46:17.884Z,3.35
2023-05-10T11:49:59.913Z,2.72
2023-05-10T11:53:41.724Z,2.78
2023-05-10T11:57:29.501Z,2.60
2023-05-10T12:04:53.715Z,3.15
2023-05-10T12:08:35.702Z,2.55
2023-05-10T12:12:17.977Z,2.78
2023-05-10T12:16:00.325Z,2.67
2023-05-10T12:19:42.454Z,2.60
2023-05-10T12:23:24.222Z,1.95
2023-05-10T12:27:09.172Z,2.05
2023-05-10T12:30:55.100Z,2.10
2023-05-10T12:34:38.156Z,2.28
2023-05-10T12:38:27.369Z,1.48
2023-05-10T12:42:09.564Z,1.50
2023-05-10T12:45:51.418Z,1.60
2023-05-10T12:49:33.210Z,1.30
2023-05-10T12:53:18.887Z,0.95
2023-05-10T12:57:00.804Z,1.15
2023-05-10T13:00:42.528Z,1.50
2023-05-10T13:04:24.355Z,1.60
2023-05-10T13:08:06.112Z,1.42
2023-05-10T13:11:49.036Z,1.48
2023-05-10T13:15:30.812Z,1.35
2023-05-10T13:19:13.344Z,1.17
2023-05-10T13:22:55.104Z,1.10
2023-05-10T13:26:37.301Z,1.42
2023-05-10T13:30:19.328Z,1.33
2023-05-10T13:34:01.379Z,1.25
2023-05-10T13:37:43.335Z,1.23
2023-05-10T13:41:25.118Z,1.05
2023-05-10T13:45:07.313Z,1.02
2023-05-10T13:48:49.048Z,0.95
2023-05-10T13:52:30.783Z,1.30
2023-05-10T13:56:13.056Z,1.02
2023-05-10T13:59:55.981Z,1.10
2023-05-10T14:03:39.500Z,0.60
2023-05-10T14:07:21.483Z,1.20
2023-05-10T14:11:03.621Z,1.23
2023-05-10T14:14:46.299Z,1.00
2023-05-10T14:18:28.372Z,1.10
2023-05-10T14:22:10.215Z,1.00
2023-05-10T14:25:53.061Z,0.80
2023-05-10T14:29:34.875Z,1.00
2023-05-10T14:33:17.906Z,0.80
2023-05-10T14:36:59.974Z,0.80
2023-05-10T14:40:41.768Z,1.05
2023-05-10T14:44:24.678Z,1.20
2023-05-10T14:48:06.815Z,1.10
2023-05-10T14:51:48.674Z,1.38
2023-05-10T14:55:31.002Z,0.90
2023-05-10T14:59:12.793Z,1.23
2023-05-10T15:02:55.131Z,1.10
2023-05-10T15:06:37.931Z,0.98
2023-05-10T15:10:19.702Z,1.27
2023-05-10T15:14:02.733Z,1.00
2023-05-10T15:17:44.542Z,1.20
2023-05-10T15:21:26.269Z,1.33
2023-05-10T15:25:08.456Z,1.27
2023-05-10T15:28:50.201Z,1.20
2023-05-10T15:32:31.970Z,1.17
2023-05-10T15:36:13.924Z,1.00
2023-05-10T15:40:02.181Z,0.93
2023-05-10T15:43:43.947Z,1.35
2023-05-10T15:47:27.005Z,1.10
2023-05-10T15:51:08.950Z,0.90
2023-05-10T15:54:51.586Z,0.80
2023-05-10T15:58:33.561Z,1.25
2023-05-10T16:02:15.992Z,0.98
2023-05-10T16:05:57.936Z,0.90
2023-05-10T16:09:39.684Z,0.85
2023-05-10T16:13:21.401Z,0.90
2023-05-10T16:17:04.257Z,0.85
2023-05-10T16:20:46.392Z,0.90
2023-05-10T16:24:28.157Z,1.05
2023-05-10T16:28:09.923Z,1.30
2023-05-10T16:31:51.708Z,1.10
2023-05-10T16:35:33.514Z,1.05
2023-05-10T16:39:15.304Z,1.08
2023-05-10T16:42:58.275Z,1.25
2023-05-10T16:46:40.667Z,1.00
2023-05-10T16:50:22.554Z,1.00
2023-05-10T16:54:04.317Z,1.08
2023-05-10T16:57:46.298Z,0.90
2023-05-10T17:01:28.580Z,1.10
2023-05-10T17:05:10.579Z,0.93
2023-05-10T17:08:52.415Z,1.38
2023-05-10T17:12:34.207Z,0.90
2023-05-10T17:16:16.079Z,1.00
2023-05-10T17:19:58.678Z,0.70
2023-05-10T17:23:40.423Z,1.10
2023-05-10T17:27:22.164Z,0.90
2023-05-10T17:31:04.028Z,1.17
2023-05-10T17:34:45.985Z,1.10
2023-05-10T17:38:27.725Z,1.58
2023-05-10T17:42:09.432Z,1.20
2023-05-10T17:45:51.327Z,1.23
2023-05-10T17:49:33.127Z,1.10
2023-05-10T17:53:14.836Z,1.30
2023-05-10T17:56:58.072Z,1.20
2023-05-10T18:00:40.101Z,1.17
2023-05-10T18:04:21.896Z,1.20
2023-05-10T18:08:04.625Z,1.10
2023-05-10T18:11:46.410Z,1.50
2023-05-10T18:15:28.218Z,1.67
2023-05-10T18:19:10.074Z,1.20
2023-05-10T18:22:51.941Z,1.27
2023-05-10T18:26:33.769Z,1.40
2023-05-10T18:30:15.738Z,1.52
2023-05-10T18:33:57.513Z,1.40
2023-05-10T18:37:39.447Z,1.50
2023-05-10T18:41:21.416Z,1.50
2023-05-10T18:45:03.659Z,1.65
2023-05-10T18:48:45.490Z,1.60
2023-05-10T18:52:27.234Z,1.80
2023-05-10T18:56:08.944Z,1.88
2023-05-10T18:59:50.945Z,1.75
2023-05-10T19:03:32.728Z,1.35
2023-05-10T19:07:14.549Z,1.85
2023-05-10T19:10:56.400Z,1.80
2023-05-10T19:14:38.182Z,1.55
2023-05-10T19:18:21.469Z,2.10
2023-05-10T19:22:03.871Z,2.17
2023-05-10T19:25:46.796Z,2.08
2023-05-10T19:29:28.622Z,2.63
2023-05-10T19:33:10.643Z,2.25
2023-05-10T19:36:52.464Z,2.40
2023-05-10T19:40:34.286Z,2.60
2023-05-10T19:44:16.094Z,3.10
2023-05-10T19:47:58.065Z,2.88
2023-05-10T19:51:40.095Z,3.10
2023-05-10T19:55:29.992Z,2.67
2023-05-10T19:59:11.776Z,2.75
2023-05-10T20:02:54.100Z,3.08
2023-05-10T20:06:35.917Z,3.28
2023-05-10T20:10:18.187Z,3.17
2023-05-10T20:13:59.939Z,3.30
2023-05-10T20:17:41.736Z,2.65
2023-05-10T20:21:24.055Z,2.53
2023-05-10T20:25:06.567Z,2.90
2023-05-10T20:28:48.453Z,2.40
2023-05-10T20:32:30.391Z,2.85
2023-05-10T20:36:12.265Z,3.10
2023-05-10T20:39:54.693Z,3.20
2023-05-10T20:43:36.528Z,3.00
2023-05-10T20:47:18.284Z,3.00
2023-05-10T20:51:02.104Z,3.17
2023-05-10T20:54:44.482Z,3.40
2023-05-10T20:58:26.497Z,2.83
2023-05-10T21:02:08.303Z,3.78
2023-05-10T21:05:50.069Z,3.47
2023-05-10T21:09:31.820Z,3.33
2023-05-10T21:13:13.603Z,3.65
2023-05-10T21:16:55.381Z,3.22
2023-05-10T21:20:37.509Z,3.15
2023-05-10T21:24:19.299Z,3.60
2023-05-10T21:28:01.028Z,2.83
2023-05-10T21:31:42.831Z,2.97
2023-05-10T21:35:25.313Z,2.95
2023-05-10T21:39:07.467Z,3.67
2023-05-10T21:42:49.711Z,3.03
2023-05-10T21:46:32.089Z,2.22
2023-05-10T21:50:13.879Z,3.08
2023-05-10T21:53:55.784Z,3.60
2023-05-10T21:57:37.551Z,3.55
2023-05-10T22:01:19.696Z,3.75
2023-05-10T22:05:03.590Z,3.53
2023-05-10T22:08:45.329Z,3.30
2023-05-10T22:12:27.478Z,4.05
2023-05-10T22:16:09.175Z,3.13
2023-05-10T22:19:50.910Z,3.92
2023-05-10T22:23:32.611Z,3.65
2023-05-10T22:27:14.342Z,3.70
2023-05-10T22:30:56.175Z,3.78
2023-05-10T22:34:37.906Z,3.47
2023-05-10T22:38:19.838Z,3.67
2023-05-10T22:42:01.893Z,3.60
2023-05-10T22:45:43.830Z,3.72
2023-05-10T22:49:25.727Z,3.42
2023-05-10T22:53:07.490Z,3.40
2023-05-10T22:56:49.367Z,3.47
2023-05-10T23:00:31.110Z,3.20
2023-05-10T23:04:13.028Z,3.20
2023-05-10T23:07:54.896Z,3.58
2023-05-10T23:11:36.868Z,3.55
2023-05-10T23:15:18.792Z,3.35
2023-05-10T23:19:00.632Z,3.83
2023-05-10T23:22:42.495Z,3.38
2023-05-10T23:26:24.252Z,4.10
2023-05-10T23:30:06.822Z,3.88
2023-05-10T23:33:48.627Z,3.85
2023-05-10T23:37:30.828Z,3.20
2023-05-10T23:41:12.759Z,3.83
2023-05-10T23:44:54.905Z,3.60
2023-05-10T23:48:37.026Z,3.83
2023-05-10T23:52:23.079Z,4.00
2023-05-10T23:56:05.142Z,3.28
2023-05-10T23:59:46.898Z,3.30
